KFCH/FCH METAR and TAF weather

Enter ICAO airport designator
Station Type Date Time Source
KFCH METAR 2022/03/06 22:40 UTC NOAA

KFCH 062240Z AUTO 00000KT 10SM SCT050 14/02 A3026 RMK A01


Station Type Date Time Source
KFCH Decoded METAR 2022/03/06 22:40 UTC NOAA

Fresno-Chandler, CA, United States (KFCH) 36-44N 119-49W
Mar 06, 2022 - 05:40 PM EST / 2022.03.06 2240 UTC
Wind: Calm:0
Visibility: 10 mile(s):0
Sky conditions: partly cloudy
Temperature: 57 F (14 C)
Dew Point: 35 F (2 C)
Relative Humidity: 44%
Pressure (altimeter): 30.26 in. Hg (1024 hPa)
ob: KFCH 062240Z AUTO 00000KT 10SM SCT050 14/02 A3026 RMK A01
cycle: 22

Station Type Date Time Source
KFCH TAF UTC NOAA

Error!

Example: see airport list